createdAt,value
2023-04-10T00:00:11.220Z,100569.70
2023-04-10T00:02:37.964Z,100570.55
2023-04-10T00:05:04.317Z,100579.75
2023-04-10T00:07:29.797Z,100576.62
2023-04-10T00:09:55.009Z,100572.22
2023-04-10T00:12:22.663Z,100576.31
2023-04-10T00:13:33.522Z,100584.92
2023-04-10T00:15:58.926Z,100575.56
2023-04-10T00:18:24.200Z,100571.47
2023-04-10T00:20:51.165Z,100566.81
2023-04-10T00:23:17.787Z,100571.14
2023-04-10T00:25:42.910Z,100574.38
2023-04-10T00:28:08.934Z,100575.45
2023-04-10T00:30:34.176Z,100574.72
2023-04-10T00:32:59.491Z,100576.10
2023-04-10T00:35:25.145Z,100574.16
2023-04-10T00:37:54.544Z,100576.84
2023-04-10T00:40:19.763Z,100570.04
2023-04-10T00:42:44.965Z,100574.55
2023-04-10T00:45:14.572Z,100567.53
2023-04-10T00:47:40.501Z,100572.63
2023-04-10T00:50:10.411Z,100562.19
2023-04-10T00:52:39.293Z,100571.47
2023-04-10T00:55:08.563Z,100565.85
2023-04-10T00:57:34.392Z,100572.33
2023-04-10T00:58:44.044Z,100569.17
2023-04-10T01:01:09.142Z,100567.82
2023-04-10T01:03:37.812Z,100565.20
2023-04-10T01:06:18.540Z,100572.22
2023-04-10T01:09:40.494Z,100571.14
2023-04-10T01:12:36.012Z,100573.41
2023-04-10T01:15:30.908Z,100572.96
2023-04-10T01:19:53.470Z,100570.27
2023-04-10T01:22:24.138Z,100567.35
2023-04-10T01:25:32.616Z,100566.61
2023-04-10T01:28:20.812Z,100570.59
2023-04-10T01:29:33.093Z,100575.87
2023-04-10T01:32:12.776Z,100567.79
2023-04-10T01:34:54.625Z,100558.52
2023-04-10T01:37:24.974Z,100574.25
2023-04-10T01:41:13.295Z,100562.83
2023-04-10T01:43:42.569Z,100561.21
2023-04-10T01:46:12.023Z,100564.98
2023-04-10T01:47:22.773Z,100572.84
2023-04-10T01:49:50.523Z,100561.66
2023-04-10T01:52:38.995Z,100573.30
2023-04-10T01:55:10.191Z,100565.52
2023-04-10T01:57:37.570Z,100570.28
2023-04-10T02:00:05.064Z,100567.36
2023-04-10T02:02:38.193Z,100570.58
2023-04-10T02:05:03.780Z,100572.31
2023-04-10T02:07:58.313Z,100575.22
2023-04-10T02:10:33.233Z,100569.75
2023-04-10T02:13:26.269Z,100569.52
2023-04-10T02:15:56.910Z,100573.72
2023-04-10T02:17:06.926Z,100573.41
2023-04-10T02:19:36.382Z,100564.43
2023-04-10T02:22:04.205Z,100568.77
2023-04-10T02:24:35.324Z,100574.48
2023-04-10T02:27:01.608Z,100569.22
2023-04-10T02:29:26.506Z,100572.42
2023-04-10T02:31:52.489Z,100568.84
2023-04-10T02:34:18.347Z,100576.94
2023-04-10T02:36:43.900Z,100565.14
2023-04-10T02:39:09.329Z,100577.48
2023-04-10T02:41:43.033Z,100575.02
2023-04-10T02:44:11.036Z,100580.72
2023-04-10T02:46:54.869Z,100578.53
2023-04-10T02:49:26.909Z,100580.38
2023-04-10T02:51:51.761Z,100591.61
2023-04-10T02:54:16.082Z,100590.87
2023-04-10T02:56:40.803Z,100583.85
2023-04-10T02:59:05.468Z,100583.74
2023-04-10T03:01:35.183Z,100590.87
2023-04-10T03:02:44.990Z,100597.50
2023-04-10T03:05:13.895Z,100583.00
2023-04-10T03:07:40.372Z,100588.81
2023-04-10T03:10:08.006Z,100585.34
2023-04-10T03:12:33.022Z,100589.79
2023-04-10T03:14:59.720Z,100592.38
2023-04-10T03:17:25.462Z,100590.31
2023-04-10T03:19:51.080Z,100593.56
2023-04-10T03:22:16.655Z,100593.89
2023-04-10T03:24:41.966Z,100592.67
2023-04-10T03:27:08.606Z,100587.84
2023-04-10T03:29:34.684Z,100593.67
2023-04-10T03:32:00.615Z,100598.51
2023-04-10T03:34:26.361Z,100595.92
2023-04-10T03:36:52.015Z,100599.80
2023-04-10T03:38:02.487Z,100597.95
2023-04-10T03:39:11.125Z,100598.51
2023-04-10T03:41:36.968Z,100594.30
2023-04-10T03:44:02.903Z,100595.70
2023-04-10T03:46:28.229Z,100592.56
2023-04-10T03:47:38.766Z,100601.08
2023-04-10T03:50:07.733Z,100597.32
2023-04-10T03:52:41.430Z,100601.48
2023-04-10T03:55:07.704Z,100597.27
2023-04-10T03:57:33.112Z,100598.45
2023-04-10T03:59:59.392Z,100605.78
2023-04-10T04:02:28.167Z,100603.11
2023-04-10T04:04:53.879Z,100610.47
2023-04-10T04:07:39.936Z,100607.89
2023-04-10T04:10:15.836Z,100608.44
2023-04-10T04:12:47.894Z,100623.27
2023-04-10T04:16:01.220Z,100622.06
2023-04-10T04:19:17.834Z,100612.91
2023-04-10T04:20:29.506Z,100620.53
2023-04-10T04:23:48.563Z,100621.98
2023-04-10T04:26:27.404Z,100624.83
2023-04-10T04:29:03.703Z,100621.69
2023-04-10T04:32:25.169Z,100610.69
2023-04-10T04:35:42.177Z,100625.34
2023-04-10T04:38:55.133Z,100624.27
2023-04-10T04:42:24.219Z,100628.37
2023-04-10T04:45:11.075Z,100630.95
2023-04-10T04:47:55.951Z,100627.68
2023-04-10T04:50:44.044Z,100628.89
2023-04-10T04:52:11.951Z,100639.89
2023-04-10T04:54:39.996Z,100626.02
2023-04-10T04:57:47.704Z,100635.28
2023-04-10T05:00:17.420Z,100640.78
2023-04-10T05:02:48.434Z,100638.83
2023-04-10T05:06:05.343Z,100641.13
2023-04-10T05:08:44.306Z,100647.68
2023-04-10T05:10:11.932Z,100652.03
2023-04-10T05:12:56.361Z,100654.00
2023-04-10T05:15:26.020Z,100657.42
2023-04-10T05:18:03.576Z,100657.06
2023-04-10T05:20:35.362Z,100654.91
2023-04-10T05:21:48.801Z,100663.63
2023-04-10T05:24:32.343Z,100653.90
2023-04-10T05:27:44.743Z,100674.54
2023-04-10T05:30:54.473Z,100658.95
2023-04-10T05:33:53.599Z,100655.06
2023-04-10T05:36:33.067Z,100660.50
2023-04-10T05:39:10.390Z,100664.88
2023-04-10T05:40:21.689Z,100664.88
2023-04-10T05:42:51.977Z,100661.39
2023-04-10T05:44:06.627Z,100660.83
2023-04-10T05:46:34.060Z,100653.97
2023-04-10T05:49:06.022Z,100665.98
2023-04-10T05:52:41.482Z,100653.58
2023-04-10T05:54:08.537Z,100659.77
2023-04-10T05:56:00.805Z,100659.98
2023-04-10T05:57:29.214Z,100668.23
2023-04-10T05:59:59.232Z,100650.77
2023-04-10T06:01:23.033Z,100658.19
2023-04-10T06:03:52.577Z,100666.12
2023-04-10T06:06:17.500Z,100661.16
2023-04-10T06:07:26.906Z,100680.49
2023-04-10T06:09:51.206Z,100661.98
2023-04-10T06:12:17.779Z,100668.23
2023-04-10T06:13:27.400Z,100680.59
2023-04-10T06:15:54.866Z,100668.44
2023-04-10T06:17:04.208Z,100680.17
2023-04-10T06:19:29.147Z,100663.80
2023-04-10T06:21:56.304Z,100685.77
2023-04-10T06:23:06.935Z,100688.33
2023-04-10T06:25:32.793Z,100679.00
2023-04-10T06:27:58.109Z,100686.02
2023-04-10T06:30:23.052Z,100689.94
2023-04-10T06:32:49.681Z,100684.70
2023-04-10T06:35:14.708Z,100692.08
2023-04-10T06:37:39.166Z,100682.69
2023-04-10T06:40:09.248Z,100681.77
2023-04-10T06:42:35.251Z,100675.45
2023-04-10T06:43:46.249Z,100689.21
2023-04-10T06:46:11.334Z,100673.50
2023-04-10T06:47:21.220Z,100682.87
2023-04-10T06:48:32.329Z,100681.95
2023-04-10T06:50:56.895Z,100677.84
2023-04-10T06:53:23.328Z,100694.65
2023-04-10T06:54:32.260Z,100694.86
2023-04-10T06:56:58.708Z,100685.66
2023-04-10T06:59:22.960Z,100678.19
2023-04-10T07:00:32.159Z,100685.63
2023-04-10T07:01:41.306Z,100697.26
2023-04-10T07:02:50.367Z,100699.10
2023-04-10T07:04:01.226Z,100685.88
2023-04-10T07:05:10.760Z,100691.91
2023-04-10T07:07:36.424Z,100692.23
2023-04-10T07:10:01.521Z,100696.44
2023-04-10T07:12:27.442Z,100688.09
2023-04-10T07:14:54.458Z,100698.48
2023-04-10T07:17:18.383Z,100704.41
2023-04-10T07:19:43.224Z,100708.98
2023-04-10T07:22:08.745Z,100696.84
2023-04-10T07:24:32.490Z,100720.14
2023-04-10T07:25:43.239Z,100711.22
2023-04-10T07:26:52.701Z,100711.84
2023-04-10T07:29:17.513Z,100710.55
2023-04-10T07:30:27.877Z,100715.02
2023-04-10T07:31:37.212Z,100707.56
2023-04-10T07:34:04.096Z,100718.45
2023-04-10T07:35:12.805Z,100713.25
2023-04-10T07:37:40.401Z,100717.55
2023-04-10T07:38:49.548Z,100712.35
2023-04-10T07:41:15.194Z,100706.64
2023-04-10T07:43:39.056Z,100715.47
2023-04-10T07:46:04.804Z,100723.77
2023-04-10T07:48:28.625Z,100717.63
2023-04-10T07:50:52.902Z,100737.88
2023-04-10T07:52:02.517Z,100721.89
2023-04-10T07:53:11.716Z,100726.21
2023-04-10T07:54:20.817Z,100720.34
2023-04-10T07:55:30.017Z,100725.52
2023-04-10T07:57:55.112Z,100721.41
2023-04-10T08:00:21.339Z,100729.27
2023-04-10T08:02:46.527Z,100728.20
2023-04-10T08:03:56.546Z,100733.34
2023-04-10T08:05:08.082Z,100732.81
2023-04-10T08:07:33.352Z,100723.06
2023-04-10T08:10:02.049Z,100710.63
2023-04-10T08:12:45.871Z,100715.28
2023-04-10T08:15:12.638Z,100717.23
2023-04-10T08:17:41.117Z,100710.11
2023-04-10T08:20:07.353Z,100715.94
2023-04-10T08:22:33.097Z,100732.88
2023-04-10T08:23:43.259Z,100731.22
2023-04-10T08:26:10.172Z,100731.00
2023-04-10T08:28:34.998Z,100729.83
2023-04-10T08:30:59.078Z,100729.27
2023-04-10T08:33:26.078Z,100732.05
2023-04-10T08:34:36.224Z,100734.92
2023-04-10T08:37:10.452Z,100720.34
2023-04-10T08:39:36.735Z,100706.95
2023-04-10T08:42:01.398Z,100721.22
2023-04-10T08:44:26.396Z,100715.91
2023-04-10T08:45:35.008Z,100725.41
2023-04-10T08:46:45.953Z,100716.77
2023-04-10T08:47:58.145Z,100714.73
2023-04-10T08:49:11.211Z,100711.81
2023-04-10T08:51:40.061Z,100725.84
2023-04-10T08:52:53.432Z,100732.20
2023-04-10T08:55:26.292Z,100712.44
2023-04-10T08:58:00.514Z,100738.50
2023-04-10T09:00:23.754Z,100733.41
2023-04-10T09:02:51.436Z,100735.24
2023-04-10T09:05:18.097Z,100721.98
2023-04-10T09:07:42.287Z,100731.24
2023-04-10T09:08:52.043Z,100738.02
2023-04-10T09:10:01.027Z,100738.98
2023-04-10T09:12:28.960Z,100709.14
2023-04-10T09:13:40.784Z,100733.16
2023-04-10T09:16:08.772Z,100709.58
2023-04-10T09:17:19.167Z,100737.78
2023-04-10T09:20:09.274Z,100710.86
2023-04-10T09:22:38.493Z,100712.72
2023-04-10T09:25:05.622Z,100723.06
2023-04-10T09:27:52.981Z,100726.73
2023-04-10T09:30:22.645Z,100731.80
2023-04-10T09:32:51.275Z,100726.30
2023-04-10T09:37:01.300Z,100725.53
2023-04-10T09:39:36.467Z,100744.75
2023-04-10T09:42:03.919Z,100742.13
2023-04-10T09:43:25.448Z,100741.44
2023-04-10T09:44:38.132Z,100744.16
2023-04-10T09:45:48.939Z,100738.95
2023-04-10T09:47:55.825Z,100745.40
2023-04-10T09:50:40.539Z,100740.62
2023-04-10T09:53:24.854Z,100728.86
2023-04-10T09:54:39.400Z,100730.81
2023-04-10T09:57:07.455Z,100730.80
2023-04-10T09:59:36.838Z,100736.41
2023-04-10T10:02:04.944Z,100733.42
2023-04-10T10:03:16.596Z,100720.23
2023-04-10T10:05:46.224Z,100718.82
2023-04-10T10:06:55.677Z,100730.58
2023-04-10T10:08:04.904Z,100722.81
2023-04-10T10:10:33.528Z,100721.75
2023-04-10T10:11:42.647Z,100740.62
2023-04-10T10:14:16.179Z,100718.05
2023-04-10T10:17:06.943Z,100722.71
2023-04-10T10:20:13.468Z,100723.38
2023-04-10T10:21:23.686Z,100712.95
2023-04-10T10:23:53.526Z,100720.67
2023-04-10T10:25:03.932Z,100719.16
2023-04-10T10:27:35.871Z,100712.69
2023-04-10T10:30:12.100Z,100711.27
2023-04-10T10:32:36.355Z,100708.34
2023-04-10T10:35:07.579Z,100715.06
2023-04-10T10:37:38.382Z,100703.72
2023-04-10T10:40:21.843Z,100695.20
2023-04-10T10:43:08.040Z,100695.97
2023-04-10T10:46:00.743Z,100703.08
2023-04-10T10:48:37.816Z,100698.44
2023-04-10T10:51:12.396Z,100695.30
2023-04-10T10:54:01.180Z,100706.00
2023-04-10T10:56:43.388Z,100701.66
2023-04-10T10:59:13.425Z,100703.38
2023-04-10T11:01:43.975Z,100699.07
2023-04-10T11:04:45.841Z,100706.48
2023-04-10T11:07:15.658Z,100706.28
2023-04-10T11:09:54.648Z,100704.25
2023-04-10T11:11:08.757Z,100702.97
2023-04-10T11:12:21.643Z,100705.55
2023-04-10T11:14:59.981Z,100694.41
2023-04-10T11:17:52.147Z,100700.46
2023-04-10T11:19:14.842Z,100712.36
2023-04-10T11:21:36.888Z,100704.36
2023-04-10T11:23:11.162Z,100711.16
2023-04-10T11:25:52.855Z,100692.98
2023-04-10T11:28:36.433Z,100691.13
2023-04-10T11:31:21.683Z,100687.53
2023-04-10T11:34:10.870Z,100685.45
2023-04-10T11:38:15.473Z,100680.02
2023-04-10T11:42:12.505Z,100682.37
2023-04-10T11:43:21.944Z,100684.66
2023-04-10T11:45:50.692Z,100666.84
2023-04-10T11:48:16.804Z,100663.93
2023-04-10T11:50:43.582Z,100661.72
2023-04-10T11:53:21.092Z,100671.20
2023-04-10T11:55:46.595Z,100647.16
2023-04-10T11:57:05.614Z,100653.13
2023-04-10T11:59:41.118Z,100644.49
2023-04-10T12:02:18.137Z,100645.67
2023-04-10T12:04:58.962Z,100637.99
2023-04-10T12:07:31.860Z,100637.11
2023-04-10T12:08:42.980Z,100638.93
2023-04-10T12:09:58.230Z,100633.28
2023-04-10T12:11:09.867Z,100644.45
2023-04-10T12:13:36.794Z,100636.47
2023-04-10T12:16:07.036Z,100646.87
2023-04-10T12:18:36.336Z,100631.16
2023-04-10T12:19:46.174Z,100642.61
2023-04-10T12:20:59.737Z,100646.84
2023-04-10T12:22:13.082Z,100631.36
2023-04-10T12:24:50.166Z,100641.59
2023-04-10T12:27:28.508Z,100631.39
2023-04-10T12:29:58.980Z,100621.83
2023-04-10T12:31:08.968Z,100632.03
2023-04-10T12:33:34.678Z,100618.83
2023-04-10T12:34:51.925Z,100612.05
2023-04-10T12:37:17.909Z,100619.09
2023-04-10T12:40:16.452Z,100631.70
2023-04-10T12:42:49.162Z,100624.53
2023-04-10T12:45:43.877Z,100618.19
2023-04-10T12:48:12.654Z,100625.72
2023-04-10T12:49:21.347Z,100614.48
2023-04-10T12:51:48.092Z,100605.77
2023-04-10T12:53:03.363Z,100617.91
2023-04-10T12:55:30.812Z,100597.20
2023-04-10T12:56:43.643Z,100601.97
2023-04-10T12:57:54.194Z,100609.35
2023-04-10T12:59:04.442Z,100606.63
2023-04-10T13:00:16.063Z,100598.52
2023-04-10T13:01:24.480Z,100601.58
2023-04-10T13:03:49.137Z,100593.40
2023-04-10T13:04:59.298Z,100600.48
2023-04-10T13:06:07.901Z,100606.50
2023-04-10T13:07:16.965Z,100601.00
2023-04-10T13:08:26.810Z,100592.86
2023-04-10T13:09:36.169Z,100587.11
2023-04-10T13:10:44.990Z,100608.16
2023-04-10T13:13:08.187Z,100587.30
2023-04-10T13:14:19.716Z,100586.52
2023-04-10T13:15:28.128Z,100591.31
2023-04-10T13:16:36.791Z,100584.34
2023-04-10T13:17:45.471Z,100584.94
2023-04-10T13:18:56.369Z,100591.48
2023-04-10T13:21:24.420Z,100574.99
2023-04-10T13:22:33.136Z,100580.36
2023-04-10T13:23:41.985Z,100583.95
2023-04-10T13:24:51.239Z,100579.25
2023-04-10T13:26:00.809Z,100577.64
2023-04-10T13:28:25.561Z,100572.87
2023-04-10T13:29:34.203Z,100577.25
2023-04-10T13:30:42.674Z,100584.27
2023-04-10T13:31:52.076Z,100586.00
2023-04-10T13:34:15.396Z,100582.34
2023-04-10T13:36:48.193Z,100570.05
2023-04-10T13:37:56.755Z,100573.85
2023-04-10T13:39:06.112Z,100569.68
2023-04-10T13:40:15.199Z,100572.77
2023-04-10T13:42:41.996Z,100563.33
2023-04-10T13:43:49.925Z,100563.55
2023-04-10T13:44:59.793Z,100568.84
2023-04-10T13:46:09.260Z,100572.89
2023-04-10T13:47:17.560Z,100575.25
2023-04-10T13:48:37.386Z,100568.74
2023-04-10T13:49:37.949Z,100567.73
2023-04-10T13:50:47.147Z,100566.50
2023-04-10T13:53:12.605Z,100559.76
2023-04-10T13:54:21.967Z,100571.31
2023-04-10T13:55:30.323Z,100562.31
2023-04-10T13:56:39.385Z,100565.02
2023-04-10T13:59:03.180Z,100562.47
2023-04-10T14:00:12.255Z,100566.16
2023-04-10T14:01:24.334Z,100570.56
2023-04-10T14:02:33.404Z,100569.84
2023-04-10T14:03:42.772Z,100568.11
2023-04-10T14:04:52.349Z,100564.42
2023-04-10T14:06:02.100Z,100564.55
2023-04-10T14:07:11.375Z,100562.70
2023-04-10T14:08:20.280Z,100565.41
2023-04-10T14:09:30.483Z,100559.86
2023-04-10T14:10:39.266Z,100563.33
2023-04-10T14:11:47.605Z,100564.30
2023-04-10T14:12:56.452Z,100551.63
2023-04-10T14:14:04.828Z,100554.58
2023-04-10T14:15:14.630Z,100557.29
2023-04-10T14:16:23.152Z,100553.73
2023-04-10T14:17:31.863Z,100552.72
2023-04-10T14:18:40.861Z,100554.58
2023-04-10T14:19:51.030Z,100546.47
2023-04-10T14:20:59.582Z,100542.78
2023-04-10T14:22:09.056Z,100541.80
2023-04-10T14:23:19.580Z,100548.06
2023-04-10T14:24:29.014Z,100540.80
2023-04-10T14:25:40.237Z,100541.55
2023-04-10T14:26:49.423Z,100542.53
2023-04-10T14:27:58.897Z,100535.39
2023-04-10T14:29:08.616Z,100542.53
2023-04-10T14:30:18.018Z,100537.12
2023-04-10T14:31:29.600Z,100533.31
2023-04-10T14:32:40.328Z,100537.61
2023-04-10T14:33:49.978Z,100532.08
2023-04-10T14:34:59.871Z,100525.81
2023-04-10T14:36:09.508Z,100529.37
2023-04-10T14:37:20.181Z,100526.53
2023-04-10T14:38:28.928Z,100526.28
2023-04-10T14:40:53.316Z,100530.69
2023-04-10T14:42:02.881Z,100530.60
2023-04-10T14:43:12.233Z,100537.97
2023-04-10T14:44:20.589Z,100534.17
2023-04-10T14:46:44.472Z,100529.39
2023-04-10T14:47:53.860Z,100526.44
2023-04-10T14:49:02.448Z,100523.11
2023-04-10T14:50:11.552Z,100523.73
2023-04-10T14:51:20.188Z,100518.08
2023-04-10T14:52:28.633Z,100524.96
2023-04-10T14:53:37.465Z,100516.59
2023-04-10T14:56:00.476Z,100516.23
2023-04-10T14:57:09.440Z,100518.56
2023-04-10T14:58:18.244Z,100521.98
2023-04-10T14:59:28.097Z,100519.91
2023-04-10T15:00:36.615Z,100521.64
2023-04-10T15:01:45.240Z,100519.52
2023-04-10T15:02:56.033Z,100510.30
2023-04-10T15:04:05.253Z,100509.32
2023-04-10T15:06:29.550Z,100510.53
2023-04-10T15:07:38.079Z,100510.41
2023-04-10T15:08:46.801Z,100506.72
2023-04-10T15:09:59.605Z,100514.97
2023-04-10T15:11:07.991Z,100508.34
2023-04-10T15:12:19.225Z,100504.37
2023-04-10T15:13:27.607Z,100499.84
2023-04-10T15:14:36.798Z,100506.84
2023-04-10T15:15:45.840Z,100504.37
2023-04-10T15:16:54.354Z,100502.93
2023-04-10T15:18:02.945Z,100503.65
2023-04-10T15:20:33.783Z,100497.23
2023-04-10T15:22:59.299Z,100497.98
2023-04-10T15:24:07.986Z,100488.03
2023-04-10T15:25:16.363Z,100495.53
2023-04-10T15:26:25.114Z,100499.22
2023-04-10T15:27:33.374Z,100498.23
2023-04-10T15:28:43.135Z,100493.55
2023-04-10T15:29:51.752Z,100493.31
2023-04-10T15:32:15.955Z,100496.28
2023-04-10T15:33:24.192Z,100495.27
2023-04-10T15:34:34.376Z,100499.09
2023-04-10T15:37:20.749Z,100488.03
2023-04-10T15:38:30.297Z,100484.97
2023-04-10T15:40:53.650Z,100485.45
2023-04-10T15:42:05.564Z,100492.44
2023-04-10T15:43:16.110Z,100491.09
2023-04-10T15:44:26.478Z,100485.81
2023-04-10T15:46:53.848Z,100489.59
2023-04-10T15:49:29.909Z,100485.55
2023-04-10T15:50:31.485Z,100485.58
2023-04-10T15:52:57.999Z,100480.66
2023-04-10T15:54:08.322Z,100491.14
2023-04-10T15:56:32.809Z,100485.47
2023-04-10T15:57:42.608Z,100479.95
2023-04-10T15:58:51.075Z,100485.23
2023-04-10T16:00:01.447Z,100483.77
2023-04-10T16:01:11.972Z,100480.58
2023-04-10T16:02:20.472Z,100482.77
2023-04-10T16:03:30.325Z,100473.42
2023-04-10T16:04:40.228Z,100468.86
2023-04-10T16:05:49.273Z,100468.76
2023-04-10T16:06:58.292Z,100477.86
2023-04-10T16:08:08.069Z,100470.97
2023-04-10T16:09:25.548Z,100478.59
2023-04-10T16:10:29.634Z,100478.00
2023-04-10T16:11:38.433Z,100470.11
2023-04-10T16:14:01.785Z,100469.73
2023-04-10T16:16:28.840Z,100468.99
2023-04-10T16:17:37.474Z,100472.44
2023-04-10T16:18:46.110Z,100471.34
2023-04-10T16:19:54.889Z,100467.52
2023-04-10T16:21:05.686Z,100471.08
2023-04-10T16:23:29.025Z,100468.60
2023-04-10T16:24:40.616Z,100471.47
2023-04-10T16:25:49.086Z,100471.47
2023-04-10T16:26:59.398Z,100478.95
2023-04-10T16:28:08.311Z,100472.70
2023-04-10T16:30:34.375Z,100472.19
2023-04-10T16:31:42.914Z,100470.48
2023-04-10T16:32:52.605Z,100476.77
2023-04-10T16:34:02.073Z,100477.48
2023-04-10T16:35:10.764Z,100475.62
2023-04-10T16:36:21.232Z,100472.48
2023-04-10T16:37:30.014Z,100474.55
2023-04-10T16:38:39.381Z,100478.23
2023-04-10T16:39:48.165Z,100480.93
2023-04-10T16:42:12.403Z,100475.53
2023-04-10T16:43:20.808Z,100478.98
2023-04-10T16:44:30.424Z,100478.98
2023-04-10T16:45:38.768Z,100476.99
2023-04-10T16:46:47.749Z,100482.53
2023-04-10T16:47:56.272Z,100478.98
2023-04-10T16:49:04.861Z,100476.41
2023-04-10T16:50:14.063Z,100481.81
2023-04-10T16:51:25.035Z,100477.51
2023-04-10T16:52:34.741Z,100485.36
2023-04-10T16:53:43.417Z,100484.15
2023-04-10T16:54:52.366Z,100479.59
2023-04-10T16:56:02.921Z,100485.63
2023-04-10T16:57:11.624Z,100491.52
2023-04-10T16:58:20.963Z,100486.36
2023-04-10T17:00:44.362Z,100486.85
2023-04-10T17:01:53.595Z,100490.28
2023-04-10T17:03:02.537Z,100492.02
2023-04-10T17:04:12.268Z,100487.84
2023-04-10T17:06:36.728Z,100482.81
2023-04-10T17:07:46.565Z,100487.59
2023-04-10T17:10:10.348Z,100485.01
2023-04-10T17:12:33.760Z,100488.19
2023-04-10T17:13:43.261Z,100491.39
2023-04-10T17:16:08.310Z,100486.61
2023-04-10T17:17:16.685Z,100489.19
2023-04-10T17:18:25.717Z,100493.11
2023-04-10T17:19:34.056Z,100486.95
2023-04-10T17:20:43.366Z,100489.27
2023-04-10T17:21:51.956Z,100491.24
2023-04-10T17:23:01.470Z,100488.79
2023-04-10T17:24:11.750Z,100487.52
2023-04-10T17:25:20.490Z,100494.11
2023-04-10T17:26:31.201Z,100495.84
2023-04-10T17:27:40.704Z,100495.81
2023-04-10T17:28:49.628Z,100496.66
2023-04-10T17:29:59.030Z,100488.56
2023-04-10T17:31:07.722Z,100495.57
2023-04-10T17:32:16.171Z,100504.55
2023-04-10T17:34:41.401Z,100492.28
2023-04-10T17:37:05.963Z,100500.94
2023-04-10T17:38:15.335Z,100499.88
2023-04-10T17:40:40.607Z,100498.39
2023-04-10T17:41:50.514Z,100498.36
2023-04-10T17:42:58.833Z,100505.22
2023-04-10T17:44:07.082Z,100499.81
2023-04-10T17:45:16.515Z,100499.45
2023-04-10T17:46:25.980Z,100498.61
2023-04-10T17:47:35.983Z,100505.55
2023-04-10T17:48:44.768Z,100502.36
2023-04-10T17:49:53.616Z,100502.08
2023-04-10T17:51:06.454Z,100495.31
2023-04-10T17:52:14.808Z,100511.83
2023-04-10T17:53:23.094Z,100514.52
2023-04-10T17:54:31.470Z,100507.55
2023-04-10T17:55:40.994Z,100511.66
2023-04-10T17:56:51.337Z,100512.13
2023-04-10T17:59:16.947Z,100508.52
2023-04-10T18:00:26.486Z,100517.05
2023-04-10T18:01:35.196Z,100518.23
2023-04-10T18:02:45.992Z,100522.30
2023-04-10T18:03:55.469Z,100505.34
2023-04-10T18:05:06.828Z,100500.83
2023-04-10T18:06:15.650Z,100498.98
2023-04-10T18:07:25.078Z,100502.36
2023-04-10T18:08:34.741Z,100506.38
2023-04-10T18:11:02.002Z,100499.48
2023-04-10T18:12:10.330Z,100516.70
2023-04-10T18:13:19.121Z,100509.92
2023-04-10T18:14:30.839Z,100505.91
2023-04-10T18:15:39.787Z,100503.02
2023-04-10T18:16:48.773Z,100506.69
2023-04-10T18:17:58.325Z,100509.69
2023-04-10T18:19:06.708Z,100517.05
2023-04-10T18:20:17.654Z,100512.08
2023-04-10T18:21:26.879Z,100516.74
2023-04-10T18:22:36.344Z,100515.78
2023-04-10T18:23:44.793Z,100513.39
2023-04-10T18:26:09.347Z,100518.41
2023-04-10T18:28:32.832Z,100513.62
2023-04-10T18:29:42.301Z,100519.80
2023-04-10T18:30:55.796Z,100513.44
2023-04-10T18:32:04.934Z,100517.17
2023-04-10T18:33:15.727Z,100520.64
2023-04-10T18:34:24.073Z,100517.17
2023-04-10T18:36:49.049Z,100524.41
2023-04-10T18:37:57.521Z,100526.80
2023-04-10T18:39:06.546Z,100530.89
2023-04-10T18:40:16.739Z,100527.77
2023-04-10T18:41:26.638Z,100517.75
2023-04-10T18:44:01.614Z,100514.86
2023-04-10T18:45:00.243Z,100532.31
2023-04-10T18:46:08.992Z,100524.02
2023-04-10T18:47:18.798Z,100523.39
2023-04-10T18:49:42.343Z,100526.19
2023-04-10T18:52:07.999Z,100527.45
2023-04-10T18:53:16.769Z,100529.19
2023-04-10T18:54:29.349Z,100531.99
2023-04-10T18:56:52.594Z,100523.39
2023-04-10T18:58:00.924Z,100525.97
2023-04-10T18:59:09.408Z,100529.96
2023-04-10T19:00:19.356Z,100524.46
2023-04-10T19:01:29.085Z,100529.96
2023-04-10T19:02:39.733Z,100540.30
2023-04-10T19:03:51.012Z,100526.61
2023-04-10T19:05:00.970Z,100534.47
2023-04-10T19:06:11.252Z,100528.86
2023-04-10T19:07:19.775Z,100529.30
2023-04-10T19:08:28.145Z,100535.65
2023-04-10T19:09:36.526Z,100531.14
2023-04-10T19:10:46.076Z,100540.19
2023-04-10T19:11:54.418Z,100535.98
2023-04-10T19:13:03.293Z,100543.84
2023-04-10T19:14:12.734Z,100530.16
2023-04-10T19:15:21.572Z,100534.36
2023-04-10T19:17:40.428Z,100536.64
2023-04-10T19:18:48.955Z,100545.69
2023-04-10T19:19:58.237Z,100542.03
2023-04-10T19:21:06.854Z,100539.52
2023-04-10T19:22:15.875Z,100531.14
2023-04-10T19:23:25.252Z,100542.33
2023-04-10T19:24:34.692Z,100542.66
2023-04-10T19:25:43.232Z,100541.14
2023-04-10T19:28:06.632Z,100536.20
2023-04-10T19:29:15.747Z,100538.67
2023-04-10T19:30:24.338Z,100540.14
2023-04-10T19:31:32.602Z,100542.30
2023-04-10T19:32:42.762Z,100540.03
2023-04-10T19:33:51.203Z,100538.97
2023-04-10T19:35:00.554Z,100535.20
2023-04-10T19:36:09.071Z,100549.44
2023-04-10T19:37:19.481Z,100536.70
2023-04-10T19:39:47.230Z,100532.06
2023-04-10T19:40:57.302Z,100529.91
2023-04-10T19:44:14.838Z,100529.08
2023-04-10T19:46:42.825Z,100527.52
2023-04-10T19:49:07.954Z,100530.73
2023-04-10T19:51:33.132Z,100531.91
2023-04-10T19:52:43.222Z,100531.98
2023-04-10T19:53:53.491Z,100541.41
2023-04-10T19:56:17.636Z,100524.09
2023-04-10T19:58:42.971Z,100530.02
2023-04-10T19:59:53.528Z,100527.25
2023-04-10T20:02:20.827Z,100518.78
2023-04-10T20:04:48.557Z,100518.78
2023-04-10T20:07:14.373Z,100521.02
2023-04-10T20:09:39.052Z,100520.12
2023-04-10T20:12:03.403Z,100521.23
2023-04-10T20:14:34.283Z,100519.14
2023-04-10T20:16:58.942Z,100514.00
2023-04-10T20:18:07.511Z,100517.41
2023-04-10T20:20:31.152Z,100514.35
2023-04-10T20:21:40.985Z,100519.03
2023-04-10T20:22:49.552Z,100523.31
2023-04-10T20:25:14.457Z,100511.95
2023-04-10T20:27:43.364Z,100514.72
2023-04-10T20:28:53.948Z,100524.17
2023-04-10T20:31:21.006Z,100510.86
2023-04-10T20:33:46.661Z,100524.06
2023-04-10T20:36:10.464Z,100516.09
2023-04-10T20:38:36.754Z,100515.81
2023-04-10T20:41:01.165Z,100521.30
2023-04-10T20:42:10.804Z,100516.51
2023-04-10T20:44:37.835Z,100511.23
2023-04-10T20:47:03.053Z,100508.59
2023-04-10T20:49:27.214Z,100510.97
2023-04-10T20:51:52.634Z,100520.78
2023-04-10T20:54:18.189Z,100512.13
2023-04-10T20:56:44.031Z,100519.35
2023-04-10T20:57:52.700Z,100519.63
2023-04-10T21:00:18.878Z,100511.34
2023-04-10T21:01:29.544Z,100506.45
2023-04-10T21:03:55.205Z,100504.06
2023-04-10T21:06:21.184Z,100498.22
2023-04-10T21:08:45.887Z,100498.63
2023-04-10T21:11:10.249Z,100500.95
2023-04-10T21:13:36.011Z,100497.28